Amherst, Ohio
Current Conditions -  °F | °C
As of 6:32 PM on Monday 20 Oct 2014 (Local Time) from KLPR Reporting Station
Light Rain Light Rain  
Wind Chill: 52°   Ceiling: 1400
Heat Index: 52°   Visibility: 6mi
Dew Point: 51°   Wind: 5mph
Humidity: 97%   Direction: 260°W
Pressure: 29.84"   Gusts: NA
Location:  41.41°N, 82.24°W
Report Text: KLPR 202232Z AUTO 26004KT 6SM -RA BR OVC014 11/11 A2984 RMK AO2 P0002 T01110106 TSNO
Loading
Personal Weather Stations






























Interactive Weather Map New forecast layout! Learn more

10-Day Weather Forecast

Advertisements
Track Severe Weather on mobile